Time;durP1;ratioP1;P1;durP2;ratioP2;P2;SDS_P1;SDS_P2;PMS_P1;PMS_P2;Temp;Humidity;BMP_temperature;BMP_pressure;BME280_temperature;BME280_humidity;BME280_pressure;Samples;Min_cycle;Max_cycle;Signal;HPM_P1;HPM_P2
2021/03/20 00:01:43;;;;;;;5.82;2.70;;;;;;;;;;5100763;28;20207;-64
2021/03/20 00:04:11;;;;;;;3.58;2.30;;;;;;;;;;5103212;28;20220;-63
2021/03/20 00:06:40;;;;;;;3.40;2.50;;;;;;;;;;5103254;28;20211;-63
2021/03/20 00:09:08;;;;;;;5.15;2.65;;;;;;;;;;5102529;28;20224;-63
2021/03/20 00:11:37;;;;;;;5.30;2.90;;;;;;;;;;5109821;28;20201;-63
2021/03/20 00:14:04;;;;;;;4.18;2.33;;;;;;;;;;5105533;28;20720;-63
2021/03/20 00:16:31;;;;;;;4.20;2.75;;;;;;;;;;5096339;28;20236;-63
2021/03/20 00:18:58;;;;;;;6.10;2.15;;;;;;;;;;5097568;28;20201;-62
2021/03/20 00:21:24;;;;;;;6.47;2.90;;;;;;;;;;5096184;28;20292;-63
2021/03/20 00:23:51;;;;;;;4.68;2.35;;;;;;;;;;5099878;28;20220;-63
2021/03/20 00:26:18;;;;;;;3.65;2.30;;;;;;;;;;5101115;28;20200;-63
2021/03/20 00:28:46;;;;;;;3.45;2.50;;;;;;;;;;5106304;28;20246;-63
2021/03/20 00:31:13;;;;;;;3.08;2.20;;;;;;;;;;5101002;28;20204;-62
2021/03/20 00:33:41;;;;;;;4.50;2.60;;;;;;;;;;5101113;28;20224;-63
2021/03/20 00:36:08;;;;;;;3.97;2.20;;;;;;;;;;5102408;28;20196;-63
2021/03/20 00:38:35;;;;;;;4.50;2.58;;;;;;;;;;5102484;28;20252;-63
2021/03/20 00:41:02;;;;;;;3.55;2.20;;;;;;;;;;5102815;28;20208;-62
2021/03/20 00:43:29;;;;;;;3.63;1.98;;;;;;;;;;5104023;28;20200;-63
2021/03/20 00:45:57;;;;;;;4.78;2.42;;;;;;;;;;5103950;28;20269;-62
2021/03/20 00:48:26;;;;;;;4.35;2.50;;;;;;;;;;5101080;28;20703;-63
2021/03/20 00:50:53;;;;;;;3.60;2.05;;;;;;;;;;5102876;28;20540;-62
2021/03/20 00:53:20;;;;;;;3.70;2.30;;;;;;;;;;5102018;28;20204;-62
2021/03/20 00:55:47;;;;;;;3.13;2.03;;;;;;;;;;5101210;28;20295;-62
2021/03/20 00:58:24;;;;;;;3.33;2.33;;;;;;;;;;5102112;28;20668;-63
2021/03/20 01:00:52;;;;;;;2.35;2.15;;;;;;;;;;5100864;28;20187;-63
2021/03/20 01:03:20;;;;;;;5.20;2.90;;;;;;;;;;5100623;28;20207;-63
2021/03/20 01:05:47;;;;;;;3.13;2.38;;;;;;;;;;5100218;28;20204;-62
2021/03/20 01:08:14;;;;;;;7.93;2.42;;;;;;;;;;5101134;28;20209;-63
2021/03/20 01:10:41;;;;;;;3.20;2.45;;;;;;;;;;5100078;28;20196;-62
2021/03/20 01:13:08;;;;;;;3.08;2.30;;;;;;;;;;5099172;28;20683;-63
2021/03/20 01:15:34;;;;;;;3.80;2.85;;;;;;;;;;5100130;28;20640;-63
2021/03/20 01:18:01;;;;;;;6.57;2.45;;;;;;;;;;5099146;28;20196;-61
2021/03/20 01:20:29;;;;;;;4.75;2.20;;;;;;;;;;5098248;28;20694;-62
2021/03/20 01:22:56;;;;;;;4.10;2.80;;;;;;;;;;5098484;28;20235;-64
2021/03/20 01:25:22;;;;;;;3.72;2.25;;;;;;;;;;5100544;28;20217;-62
2021/03/20 01:27:50;;;;;;;5.05;2.70;;;;;;;;;;5103062;28;20216;-63
2021/03/20 01:30:20;;;;;;;4.05;2.05;;;;;;;;;;5102537;28;20323;-62
2021/03/20 01:32:47;;;;;;;2.67;2.40;;;;;;;;;;5101284;28;20656;-62
2021/03/20 01:35:13;;;;;;;5.90;2.60;;;;;;;;;;5099125;28;20587;-62
2021/03/20 01:37:42;;;;;;;3.63;2.53;;;;;;;;;;5099590;28;20200;-62
2021/03/20 01:40:09;;;;;;;4.30;2.35;;;;;;;;;;5099692;28;20200;-62
2021/03/20 01:42:40;;;;;;;4.57;2.75;;;;;;;;;;5099584;28;20228;-64
2021/03/20 01:45:18;;;;;;;3.67;2.30;;;;;;;;;;5098913;28;20254;-63
2021/03/20 01:47:54;;;;;;;2.42;2.20;;;;;;;;;;5099742;28;20607;-63
2021/03/20 01:50:26;;;;;;;5.97;2.65;;;;;;;;;;5098578;28;20207;-61
2021/03/20 01:52:56;;;;;;;3.85;2.85;;;;;;;;;;5098326;28;20208;-63
2021/03/20 01:55:23;;;;;;;5.95;3.00;;;;;;;;;;5098026;28;20224;-63
2021/03/20 01:57:51;;;;;;;4.88;2.90;;;;;;;;;;5097844;28;20664;-62
2021/03/20 02:00:21;;;;;;;7.25;3.85;;;;;;;;;;5096809;28;20743;-63
2021/03/20 02:02:47;;;;;;;3.85;2.10;;;;;;;;;;5097198;28;20204;-62
2021/03/20 02:05:15;;;;;;;5.88;3.13;;;;;;;;;;5097163;28;20638;-63
2021/03/20 02:07:42;;;;;;;4.85;2.70;;;;;;;;;;5096999;28;20209;-63
2021/03/20 02:10:10;;;;;;;4.00;2.50;;;;;;;;;;5096768;28;20668;-63
2021/03/20 02:12:38;;;;;;;4.70;3.30;;;;;;;;;;5097100;28;20665;-63
2021/03/20 02:15:08;;;;;;;7.00;2.58;;;;;;;;;;5097041;28;20228;-63
2021/03/20 02:17:40;;;;;;;3.10;2.78;;;;;;;;;;5098904;28;20208;-63
2021/03/20 02:20:26;;;;;;;5.88;3.13;;;;;;;;;;5099376;28;20203;-63
2021/03/20 02:23:20;;;;;;;6.28;3.00;;;;;;;;;;5099242;28;20188;-63
2021/03/20 02:26:04;;;;;;;3.30;2.38;;;;;;;;;;5097282;28;20193;-64
2021/03/20 02:28:51;;;;;;;3.72;3.05;;;;;;;;;;5097718;28;20204;-62
2021/03/20 02:31:41;;;;;;;4.90;2.38;;;;;;;;;;5096675;28;20184;-64
2021/03/20 02:34:15;;;;;;;4.40;3.00;;;;;;;;;;5096610;28;20220;-63
2021/03/20 02:36:45;;;;;;;4.50;2.85;;;;;;;;;;5096175;28;20196;-63
2021/03/20 02:39:16;;;;;;;5.10;2.80;;;;;;;;;;5097208;28;20565;-63
2021/03/20 02:41:47;;;;;;;6.78;3.45;;;;;;;;;;5098516;28;20246;-63
2021/03/20 02:44:17;;;;;;;4.80;2.97;;;;;;;;;;5097755;28;20720;-63
2021/03/20 02:46:46;;;;;;;4.10;2.90;;;;;;;;;;5100767;28;20200;-63
2021/03/20 02:49:19;;;;;;;3.83;2.40;;;;;;;;;;5095155;28;20269;-62
2021/03/20 02:51:50;;;;;;;4.10;2.90;;;;;;;;;;5095248;28;20196;-63
2021/03/20 02:54:20;;;;;;;5.10;2.80;;;;;;;;;;5095561;28;20231;-62
2021/03/20 02:56:49;;;;;;;2.53;2.33;;;;;;;;;;5096283;28;20838;-63
2021/03/20 02:59:16;;;;;;;3.63;2.85;;;;;;;;;;5098109;28;20193;-63
2021/03/20 03:01:45;;;;;;;3.22;2.92;;;;;;;;;;5099807;28;20207;-63
2021/03/20 03:04:13;;;;;;;4.13;2.90;;;;;;;;;;5104148;28;20220;-63
2021/03/20 03:06:45;;;;;;;3.22;2.25;;;;;;;;;;5102960;28;20213;-63
2021/03/20 03:09:13;;;;;;;3.28;2.88;;;;;;;;;;5100312;28;20302;-63
2021/03/20 03:11:42;;;;;;;3.60;2.50;;;;;;;;;;5099747;28;20197;-63
2021/03/20 03:14:11;;;;;;;7.63;2.13;;;;;;;;;;5096998;28;20220;-62
2021/03/20 03:16:41;;;;;;;3.25;2.15;;;;;;;;;;5101607;28;20200;-64
2021/03/20 03:19:09;;;;;;;3.33;2.65;;;;;;;;;;5107462;28;20207;-63
2021/03/20 03:21:40;;;;;;;4.45;2.28;;;;;;;;;;5098137;28;20200;-63
2021/03/20 03:24:09;;;;;;;3.10;2.70;;;;;;;;;;5096757;28;20235;-64
2021/03/20 03:26:38;;;;;;;4.03;2.17;;;;;;;;;;5098959;28;20287;-63
2021/03/20 03:29:07;;;;;;;7.72;2.50;;;;;;;;;;5097026;28;20234;-63
2021/03/20 03:31:35;;;;;;;3.08;2.38;;;;;;;;;;5097567;28;20212;-64
2021/03/20 03:34:04;;;;;;;4.53;2.75;;;;;;;;;;5097200;28;20269;-64
2021/03/20 03:36:36;;;;;;;2.83;2.33;;;;;;;;;;5094648;28;20683;-63
2021/03/20 03:39:10;;;;;;;9.02;2.95;;;;;;;;;;5093886;28;20686;-63
2021/03/20 03:41:38;;;;;;;4.60;2.55;;;;;;;;;;5094347;28;20192;-64
2021/03/20 03:44:07;;;;;;;5.88;2.80;;;;;;;;;;5094206;28;20224;-64
2021/03/20 03:46:36;;;;;;;4.07;2.50;;;;;;;;;;5093768;28;20674;-63
2021/03/20 03:49:06;;;;;;;4.43;2.55;;;;;;;;;;5093997;28;20216;-63
2021/03/20 03:51:33;;;;;;;3.55;2.80;;;;;;;;;;5093976;28;20200;-63
2021/03/20 03:54:00;;;;;;;2.65;2.10;;;;;;;;;;5093536;28;20224;-63
2021/03/20 03:56:44;;;;;;;3.88;2.75;;;;;;;;;;5093997;28;20215;-64
2021/03/20 03:59:14;;;;;;;3.58;3.20;;;;;;;;;;5093686;28;20218;-63
2021/03/20 04:01:44;;;;;;;3.80;3.10;;;;;;;;;;5094292;28;20208;-63
2021/03/20 04:04:19;;;;;;;6.88;2.88;;;;;;;;;;5093758;28;20227;-63
2021/03/20 04:07:58;;;;;;;5.72;3.40;;;;;;;;;;5112915;27;20605;-62
2021/03/20 04:10:29;;;;;;;6.80;3.25;;;;;;;;;;5112119;28;20636;-64
2021/03/20 04:12:59;;;;;;;4.93;2.88;;;;;;;;;;5111521;28;20184;-63
2021/03/20 04:15:33;;;;;;;5.07;3.30;;;;;;;;;;5111174;28;20220;-63
2021/03/20 04:18:03;;;;;;;5.40;3.20;;;;;;;;;;5111396;28;20192;-63
2021/03/20 04:20:33;;;;;;;3.17;2.70;;;;;;;;;;5111110;28;20196;-63
2021/03/20 04:23:02;;;;;;;3.70;3.22;;;;;;;;;;5110935;28;20188;-63
2021/03/20 04:25:32;;;;;;;4.20;3.42;;;;;;;;;;5111102;28;20224;-64
2021/03/20 04:28:07;;;;;;;5.85;3.00;;;;;;;;;;5111120;28;20206;-63
2021/03/20 04:30:35;;;;;;;6.20;3.15;;;;;;;;;;5111155;28;20186;-63
2021/03/20 04:33:05;;;;;;;6.22;3.53;;;;;;;;;;5120644;28;20200;-64
2021/03/20 04:35:33;;;;;;;3.75;3.20;;;;;;;;;;5113127;28;20626;-64
2021/03/20 04:38:02;;;;;;;5.10;3.72;;;;;;;;;;5111524;28;20200;-63
2021/03/20 04:40:31;;;;;;;4.50;3.13;;;;;;;;;;5111464;28;20253;-63
2021/03/20 04:42:59;;;;;;;6.45;3.33;;;;;;;;;;5110896;28;20204;-63
2021/03/20 04:45:28;;;;;;;5.57;3.80;;;;;;;;;;5110412;28;20237;-63
2021/03/20 04:47:55;;;;;;;4.03;3.40;;;;;;;;;;5110607;28;20234;-63
2021/03/20 04:50:24;;;;;;;6.65;3.60;;;;;;;;;;5110766;28;20245;-63
2021/03/20 04:52:52;;;;;;;3.85;3.47;;;;;;;;;;5110216;28;20257;-63
2021/03/20 04:55:20;;;;;;;4.30;3.55;;;;;;;;;;5110098;28;20227;-63
2021/03/20 04:57:47;;;;;;;8.30;3.80;;;;;;;;;;5110618;28;20199;-63
2021/03/20 05:00:16;;;;;;;5.63;3.72;;;;;;;;;;5110473;28;20264;-60
2021/03/20 05:02:45;;;;;;;7.82;3.83;;;;;;;;;;5110741;28;20199;-62
2021/03/20 05:05:19;;;;;;;5.63;3.20;;;;;;;;;;5112556;28;20224;-61
2021/03/20 05:07:46;;;;;;;6.13;3.47;;;;;;;;;;5111072;28;20600;-62
2021/03/20 05:10:19;;;;;;;7.03;3.28;;;;;;;;;;5117412;28;20652;-63
2021/03/20 05:12:49;;;;;;;4.25;3.55;;;;;;;;;;5112540;28;20577;-63
2021/03/20 05:15:22;;;;;;;5.55;4.57;;;;;;;;;;5118385;28;20620;-62
2021/03/20 05:17:49;;;;;;;6.72;3.50;;;;;;;;;;5112480;28;20191;-62
2021/03/20 05:20:16;;;;;;;8.73;3.90;;;;;;;;;;5097112;28;20249;-64
2021/03/20 05:22:43;;;;;;;8.60;4.00;;;;;;;;;;5097083;28;20200;-64
2021/03/20 05:25:13;;;;;;;6.85;3.72;;;;;;;;;;5096690;28;20231;-62
2021/03/20 05:27:40;;;;;;;5.13;3.90;;;;;;;;;;5097394;28;20250;-62
2021/03/20 05:30:08;;;;;;;5.40;3.53;;;;;;;;;;5099962;28;20683;-64
2021/03/20 05:32:36;;;;;;;4.72;3.05;;;;;;;;;;5096835;28;20208;-64
2021/03/20 05:35:06;;;;;;;5.55;3.35;;;;;;;;;;5097058;28;20588;-63
2021/03/20 05:37:34;;;;;;;5.75;3.97;;;;;;;;;;5096501;28;20185;-64
2021/03/20 05:40:01;;;;;;;3.92;3.50;;;;;;;;;;5096495;28;20224;-63
2021/03/20 05:42:46;;;;;;;7.15;4.47;;;;;;;;;;5096923;28;20200;-63
2021/03/20 05:45:19;;;;;;;5.80;3.60;;;;;;;;;;5097581;28;20589;-64
2021/03/20 05:47:57;;;;;;;7.70;3.20;;;;;;;;;;5097987;28;20261;-63
2021/03/20 05:50:33;;;;;;;4.63;3.50;;;;;;;;;;5099092;28;20203;-64
2021/03/20 05:53:17;;;;;;;7.30;3.35;;;;;;;;;;5097911;28;20242;-63
2021/03/20 05:55:48;;;;;;;4.25;2.90;;;;;;;;;;5098498;28;20254;-62
2021/03/20 05:58:26;;;;;;;5.32;3.10;;;;;;;;;;5097646;28;20201;-63
2021/03/20 06:00:58;;;;;;;6.13;3.70;;;;;;;;;;5097911;28;20195;-62
2021/03/20 06:03:30;;;;;;;5.65;3.22;;;;;;;;;;5097295;28;20204;-63
2021/03/20 06:06:00;;;;;;;4.05;3.45;;;;;;;;;;5097359;28;20598;-64
2021/03/20 06:08:47;;;;;;;7.63;4.18;;;;;;;;;;5097216;28;20189;-63
2021/03/20 06:11:23;;;;;;;4.70;3.50;;;;;;;;;;5096674;28;20652;-62
2021/03/20 06:13:55;;;;;;;4.97;3.30;;;;;;;;;;5097100;28;20224;-63
2021/03/20 06:16:28;;;;;;;7.88;3.63;;;;;;;;;;5097226;28;20177;-63
2021/03/20 06:19:21;;;;;;;3.92;3.50;;;;;;;;;;5096819;28;20325;-64
2021/03/20 06:22:21;;;;;;;6.47;4.43;;;;;;;;;;5060096;28;20687;-64
2021/03/20 06:24:54;;;;;;;5.45;4.30;;;;;;;;;;5043520;28;20225;-64
2021/03/20 06:27:22;;;;;;;4.15;3.50;;;;;;;;;;5045505;28;20210;-62
2021/03/20 06:29:55;;;;;;;4.88;3.25;;;;;;;;;;5069907;28;20211;-63
2021/03/20 06:32:23;;;;;;;3.85;3.25;;;;;;;;;;5096155;28;20629;-63
2021/03/20 06:34:52;;;;;;;7.05;3.30;;;;;;;;;;5095449;28;20696;-63
2021/03/20 06:37:21;;;;;;;3.42;3.10;;;;;;;;;;5096097;28;20566;-64
2021/03/20 06:39:57;;;;;;;4.78;3.17;;;;;;;;;;5095413;28;20208;-63
2021/03/20 06:42:24;;;;;;;4.55;3.10;;;;;;;;;;5095369;28;20184;-63
2021/03/20 06:44:56;;;;;;;4.95;2.80;;;;;;;;;;5095046;28;20216;-64
2021/03/20 06:47:25;;;;;;;5.45;3.60;;;;;;;;;;5096061;28;20204;-61
2021/03/20 06:49:56;;;;;;;3.38;2.95;;;;;;;;;;5095207;28;20603;-62
2021/03/20 06:52:23;;;;;;;4.20;2.78;;;;;;;;;;5096360;28;20324;-62
2021/03/20 06:54:54;;;;;;;4.55;2.63;;;;;;;;;;5094682;28;20224;-62
2021/03/20 06:57:21;;;;;;;3.92;3.03;;;;;;;;;;5095211;28;20257;-63
2021/03/20 06:59:48;;;;;;;6.18;3.13;;;;;;;;;;5094468;28;20694;-64
2021/03/20 07:02:22;;;;;;;5.18;3.05;;;;;;;;;;5094806;28;20215;-63
2021/03/20 07:04:59;;;;;;;5.40;3.60;;;;;;;;;;5094566;28;20322;-62
2021/03/20 07:07:46;;;;;;;5.82;2.90;;;;;;;;;;5094464;28;20216;-65
2021/03/20 07:10:18;;;;;;;3.88;2.50;;;;;;;;;;5094802;28;20238;-64
2021/03/20 07:13:05;;;;;;;6.15;3.50;;;;;;;;;;5095041;28;20192;-63
2021/03/20 07:15:32;;;;;;;3.90;2.15;;;;;;;;;;5109636;28;20281;-63
2021/03/20 07:18:13;;;;;;;8.48;2.85;;;;;;;;;;5109476;28;20203;-62
2021/03/20 07:20:42;;;;;;;4.82;3.65;;;;;;;;;;5107831;28;20200;-64
2021/03/20 07:23:11;;;;;;;8.45;3.45;;;;;;;;;;5106875;28;20211;-63
2021/03/20 07:25:44;;;;;;;3.58;3.28;;;;;;;;;;5098287;28;20269;-63
2021/03/20 07:28:12;;;;;;;4.70;2.60;;;;;;;;;;5095959;28;20206;-62
2021/03/20 07:30:40;;;;;;;7.97;3.08;;;;;;;;;;5095060;28;20204;-63
2021/03/20 07:33:25;;;;;;;6.03;2.72;;;;;;;;;;5095018;28;20196;-63
2021/03/20 07:35:53;;;;;;;3.65;2.70;;;;;;;;;;5094966;28;20232;-63
2021/03/20 07:38:22;;;;;;;4.35;2.70;;;;;;;;;;5094911;28;20257;-63
2021/03/20 07:40:49;;;;;;;7.38;2.45;;;;;;;;;;5093976;28;20214;-63
2021/03/20 07:43:18;;;;;;;3.17;2.50;;;;;;;;;;5093650;28;20210;-64
2021/03/20 07:45:45;;;;;;;3.67;2.53;;;;;;;;;;5093735;28;20257;-64
2021/03/20 07:48:17;;;;;;;5.95;2.83;;;;;;;;;;5093896;28;20211;-63
2021/03/20 07:50:45;;;;;;;4.07;2.92;;;;;;;;;;5094254;28;20253;-64
2021/03/20 07:53:15;;;;;;;3.38;2.15;;;;;;;;;;5093572;28;20200;-62
2021/03/20 07:55:57;;;;;;;2.25;1.98;;;;;;;;;;5094157;28;20563;-63
2021/03/20 07:58:25;;;;;;;3.88;2.38;;;;;;;;;;5094099;28;20212;-64
2021/03/20 08:00:55;;;;;;;5.38;2.33;;;;;;;;;;5094188;28;20196;-64
2021/03/20 08:03:25;;;;;;;4.15;2.40;;;;;;;;;;5093440;28;20203;-63
2021/03/20 08:05:52;;;;;;;5.65;2.00;;;;;;;;;;5093440;28;20222;-63
2021/03/20 08:08:21;;;;;;;2.75;2.00;;;;;;;;;;5093559;28;20184;-63
2021/03/20 08:10:48;;;;;;;3.15;2.05;;;;;;;;;;5093251;28;20226;-63
2021/03/20 08:13:35;;;;;;;5.82;2.30;;;;;;;;;;5093348;28;20226;-63
2021/03/20 08:16:02;;;;;;;1.75;1.50;;;;;;;;;;5093743;28;20196;-63
2021/03/20 08:18:29;;;;;;;8.40;2.53;;;;;;;;;;5093225;28;20683;-63
2021/03/20 08:21:17;;;;;;;2.95;1.85;;;;;;;;;;5093559;28;20208;-63
2021/03/20 08:23:54;;;;;;;2.85;1.98;;;;;;;;;;5093381;28;20567;-64
2021/03/20 08:26:26;;;;;;;3.47;1.67;;;;;;;;;;5093690;28;20208;-63
2021/03/20 08:28:56;;;;;;;5.00;1.90;;;;;;;;;;5093986;28;20185;-63
2021/03/20 08:31:32;;;;;;;3.38;1.85;;;;;;;;;;5093379;28;20188;-64
2021/03/20 08:34:10;;;;;;;3.95;1.60;;;;;;;;;;5093674;28;20219;-64
2021/03/20 08:36:52;;;;;;;4.18;1.85;;;;;;;;;;5093058;28;20192;-63
2021/03/20 08:39:25;;;;;;;4.63;2.20;;;;;;;;;;5093685;28;20189;-65
2021/03/20 08:41:56;;;;;;;2.08;1.30;;;;;;;;;;5092997;28;20552;-64
2021/03/20 08:44:37;;;;;;;2.40;1.48;;;;;;;;;;5093290;28;20228;-64
2021/03/20 08:47:14;;;;;;;3.97;1.92;;;;;;;;;;5090762;28;20220;-65
2021/03/20 08:49:54;;;;;;;5.50;2.30;;;;;;;;;;5093271;28;20192;-63
2021/03/20 08:52:25;;;;;;;2.95;1.70;;;;;;;;;;5093377;28;20188;-65
2021/03/20 08:55:04;;;;;;;3.85;1.75;;;;;;;;;;5096784;28;20220;-65
2021/03/20 08:57:36;;;;;;;3.78;1.80;;;;;;;;;;5097133;28;20185;-63
2021/03/20 09:00:11;;;;;;;2.60;1.88;;;;;;;;;;5097094;28;20192;-62
2021/03/20 09:02:39;;;;;;;1.65;1.50;;;;;;;;;;5096653;28;20636;-63
2021/03/20 09:05:11;;;;;;;2.00;1.30;;;;;;;;;;5096197;28;20440;-64
2021/03/20 09:07:40;;;;;;;2.05;1.85;;;;;;;;;;5096398;28;20277;-63
2021/03/20 09:10:14;;;;;;;3.28;1.83;;;;;;;;;;5096779;28;20208;-65
2021/03/20 09:12:44;;;;;;;3.92;2.05;;;;;;;;;;5096700;28;20539;-64
2021/03/20 09:15:18;;;;;;;2.60;1.50;;;;;;;;;;5096589;28;20227;-62
2021/03/20 09:17:45;;;;;;;2.63;1.60;;;;;;;;;;5096317;28;20183;-64
2021/03/20 09:20:15;;;;;;;2.33;1.10;;;;;;;;;;5097104;28;20299;-64
2021/03/20 09:22:44;;;;;;;2.38;1.52;;;;;;;;;;5097169;28;20300;-65
2021/03/20 09:25:19;;;;;;;3.30;1.30;;;;;;;;;;5096029;28;20704;-63
2021/03/20 09:28:03;;;;;;;3.47;1.60;;;;;;;;;;5096542;28;20214;-63
2021/03/20 09:30:31;;;;;;;2.38;1.38;;;;;;;;;;5098503;28;20204;-64
2021/03/20 09:32:58;;;;;;;3.20;1.70;;;;;;;;;;5112344;28;20200;-65
2021/03/20 09:35:27;;;;;;;2.50;1.27;;;;;;;;;;5102585;28;20220;-64
2021/03/20 09:38:00;;;;;;;2.92;1.70;;;;;;;;;;5099170;28;20218;-63
2021/03/20 09:40:49;;;;;;;2.88;1.40;;;;;;;;;;5097871;28;20219;-63
2021/03/20 09:43:21;;;;;;;1.52;1.30;;;;;;;;;;5092166;28;20200;-64
2021/03/20 09:45:48;;;;;;;1.38;1.20;;;;;;;;;;5096247;28;20196;-63
2021/03/20 09:48:30;;;;;;;1.10;1.00;;;;;;;;;;5095721;28;20302;-64
2021/03/20 09:50:57;;;;;;;1.42;0.85;;;;;;;;;;5095958;28;20200;-64
2021/03/20 09:53:31;;;;;;;2.80;1.27;;;;;;;;;;5095651;28;20204;-64
2021/03/20 09:56:18;;;;;;;1.60;1.13;;;;;;;;;;5095484;28;20210;-63
2021/03/20 09:58:46;;;;;;;2.38;1.25;;;;;;;;;;5095347;28;20253;-64
2021/03/20 10:01:14;;;;;;;1.80;1.30;;;;;;;;;;5096254;28;20200;-64
2021/03/20 10:04:14;;;;;;;1.30;0.90;;;;;;;;;;5095171;28;20789;-63
2021/03/20 10:06:41;;;;;;;2.50;1.10;;;;;;;;;;5094911;28;20224;-62
2021/03/20 10:09:17;;;;;;;4.32;1.50;;;;;;;;;;5096034;28;20249;-62
2021/03/20 10:12:01;;;;;;;4.57;1.83;;;;;;;;;;5096152;28;20187;-62
2021/03/20 10:14:30;;;;;;;1.50;1.20;;;;;;;;;;5095622;28;20239;-62
2021/03/20 10:17:05;;;;;;;2.45;1.70;;;;;;;;;;5095458;28;20193;-62
2021/03/20 10:19:34;;;;;;;2.17;1.50;;;;;;;;;;5096296;28;20184;-62
2021/03/20 10:22:04;;;;;;;2.40;1.60;;;;;;;;;;5095805;28;20204;-61
2021/03/20 10:24:30;;;;;;;1.50;1.40;;;;;;;;;;5096789;28;20221;-62
2021/03/20 10:27:00;;;;;;;2.38;1.45;;;;;;;;;;5096147;28;20228;-61
2021/03/20 10:29:30;;;;;;;4.50;1.15;;;;;;;;;;5096298;28;20204;-61
2021/03/20 10:32:03;;;;;;;1.23;1.13;;;;;;;;;;5095974;28;20291;-61
2021/03/20 10:34:42;;;;;;;1.95;1.05;;;;;;;;;;5094374;28;20508;-61
2021/03/20 10:37:11;;;;;;;1.88;1.20;;;;;;;;;;5096362;28;20215;-61
2021/03/20 10:39:38;;;;;;;1.20;1.08;;;;;;;;;;5097543;28;20660;-61
2021/03/20 10:42:06;;;;;;;2.33;1.50;;;;;;;;;;5097484;28;20204;-61
2021/03/20 10:44:37;;;;;;;3.80;1.38;;;;;;;;;;5096656;28;20287;-61
2021/03/20 10:47:06;;;;;;;2.00;1.58;;;;;;;;;;5096005;28;20209;-62
2021/03/20 10:49:34;;;;;;;2.90;1.63;;;;;;;;;;5095458;28;20209;-62
2021/03/20 10:52:01;;;;;;;2.17;1.55;;;;;;;;;;5096150;28;20202;-62
2021/03/20 10:54:31;;;;;;;1.50;1.25;;;;;;;;;;5102682;28;20236;-62
2021/03/20 10:57:02;;;;;;;2.53;1.65;;;;;;;;;;5098600;28;20201;-63
2021/03/20 10:59:32;;;;;;;3.60;2.30;;;;;;;;;;5094839;28;20656;-62
2021/03/20 11:02:13;;;;;;;3.50;1.60;;;;;;;;;;5095003;28;20687;-63
2021/03/20 11:04:40;;;;;;;2.50;1.40;;;;;;;;;;5094513;28;20229;-62
2021/03/20 11:07:13;;;;;;;1.73;1.60;;;;;;;;;;5094505;28;20224;-62
2021/03/20 11:09:40;;;;;;;1.70;1.52;;;;;;;;;;5094501;28;20196;-61
2021/03/20 11:12:09;;;;;;;1.52;1.10;;;;;;;;;;5094346;28;20254;-61
2021/03/20 11:14:46;;;;;;;1.20;1.10;;;;;;;;;;5093993;28;20224;-64
2021/03/20 11:17:17;;;;;;;1.80;1.52;;;;;;;;;;5094379;28;20180;-63
2021/03/20 11:19:44;;;;;;;4.60;2.08;;;;;;;;;;5094785;28;20183;-63
2021/03/20 11:22:18;;;;;;;2.40;1.50;;;;;;;;;;5094661;28;20202;-62
2021/03/20 11:24:52;;;;;;;1.88;1.30;;;;;;;;;;5094991;28;20222;-61
2021/03/20 11:27:20;;;;;;;1.95;1.40;;;;;;;;;;5095006;28;20206;-62
2021/03/20 11:29:48;;;;;;;1.55;1.45;;;;;;;;;;5094288;28;20203;-60
2021/03/20 11:32:27;;;;;;;4.07;1.80;;;;;;;;;;5093982;28;20607;-60
2021/03/20 11:35:11;;;;;;;2.03;1.20;;;;;;;;;;5094280;28;20221;-61
2021/03/20 11:37:38;;;;;;;4.40;1.50;;;;;;;;;;5094212;28;20183;-61
2021/03/20 11:40:06;;;;;;;2.75;1.92;;;;;;;;;;5094555;28;20207;-63
2021/03/20 11:42:35;;;;;;;3.47;1.50;;;;;;;;;;5094147;28;20214;-62
2021/03/20 11:45:07;;;;;;;5.63;1.20;;;;;;;;;;5093935;28;20277;-62
2021/03/20 11:47:37;;;;;;;2.97;1.55;;;;;;;;;;5093929;28;20230;-61
2021/03/20 11:50:07;;;;;;;1.52;1.30;;;;;;;;;;5094085;28;20270;-62
2021/03/20 11:52:45;;;;;;;1.60;1.10;;;;;;;;;;5094411;28;20206;-61
2021/03/20 11:55:17;;;;;;;4.00;0.90;;;;;;;;;;5093969;28;20224;-62
2021/03/20 11:57:44;;;;;;;4.00;1.35;;;;;;;;;;5094490;28;20256;-61
2021/03/20 12:00:31;;;;;;;2.58;1.40;;;;;;;;;;5093831;28;20691;-60
2021/03/20 12:02:59;;;;;;;1.75;1.10;;;;;;;;;;5093946;28;20690;-61
2021/03/20 12:05:28;;;;;;;2.55;1.30;;;;;;;;;;5093523;28;20223;-62
2021/03/20 12:08:10;;;;;;;1.58;1.02;;;;;;;;;;5093595;28;20226;-61
2021/03/20 12:10:36;;;;;;;1.55;1.10;;;;;;;;;;5093830;28;20202;-62
2021/03/20 12:13:03;;;;;;;2.17;1.27;;;;;;;;;;5094264;28;20213;-61
2021/03/20 12:15:31;;;;;;;1.40;1.30;;;;;;;;;;5094666;28;20230;-61
2021/03/20 12:18:00;;;;;;;2.50;1.30;;;;;;;;;;5094617;28;20206;-61
2021/03/20 12:20:33;;;;;;;2.30;1.38;;;;;;;;;;5094734;28;20578;-61
2021/03/20 12:23:11;;;;;;;1.58;1.17;;;;;;;;;;5093804;28;20191;-60
2021/03/20 12:25:44;;;;;;;1.83;1.67;;;;;;;;;;5093581;28;20713;-62
2021/03/20 12:28:24;;;;;;;1.50;1.00;;;;;;;;;;5095534;28;20222;-60
2021/03/20 12:31:01;;;;;;;3.08;1.60;;;;;;;;;;5098434;28;20191;-61
2021/03/20 12:33:29;;;;;;;1.83;1.58;;;;;;;;;;5102555;28;20184;-61
2021/03/20 12:35:56;;;;;;;2.25;1.80;;;;;;;;;;5111882;28;20355;-61
2021/03/20 12:38:24;;;;;;;1.98;1.45;;;;;;;;;;5106444;28;20265;-62
2021/03/20 12:40:53;;;;;;;2.60;1.95;;;;;;;;;;5100689;28;20211;-60
2021/03/20 12:43:25;;;;;;;2.83;1.30;;;;;;;;;;5099037;28;20207;-60
2021/03/20 12:45:53;;;;;;;1.80;1.35;;;;;;;;;;5099895;28;20620;-62
2021/03/20 12:48:20;;;;;;;2.55;1.63;;;;;;;;;;5099671;28;20223;-60
2021/03/20 12:50:48;;;;;;;1.70;1.20;;;;;;;;;;5098325;28;20211;-61
2021/03/20 12:53:14;;;;;;;2.70;1.70;;;;;;;;;;5097694;28;20204;-60
2021/03/20 12:55:41;;;;;;;1.92;1.48;;;;;;;;;;5100381;28;20228;-61
2021/03/20 12:58:08;;;;;;;2.33;1.52;;;;;;;;;;5100077;28;20228;-60
2021/03/20 13:00:35;;;;;;;3.63;1.33;;;;;;;;;;5099010;28;20205;-59
2021/03/20 13:03:02;;;;;;;2.40;1.70;;;;;;;;;;5099972;28;20207;-61
2021/03/20 13:05:30;;;;;;;3.10;1.92;;;;;;;;;;5098704;28;20250;-59
2021/03/20 13:07:57;;;;;;;2.65;1.65;;;;;;;;;;5099258;28;20218;-61
2021/03/20 13:10:24;;;;;;;3.88;2.15;;;;;;;;;;5098366;28;20208;-59
2021/03/20 13:12:51;;;;;;;2.00;1.75;;;;;;;;;;5102302;28;20544;-61
2021/03/20 13:15:19;;;;;;;3.13;1.88;;;;;;;;;;5102436;28;20218;-61
2021/03/20 13:17:45;;;;;;;2.60;2.05;;;;;;;;;;5098117;28;20203;-59
2021/03/20 13:20:13;;;;;;;2.10;1.73;;;;;;;;;;5097576;28;20206;-59
2021/03/20 13:22:40;;;;;;;2.38;2.10;;;;;;;;;;5097127;28;20206;-61
2021/03/20 13:25:09;;;;;;;2.38;2.08;;;;;;;;;;5096593;28;20218;-62
2021/03/20 13:27:35;;;;;;;2.85;1.83;;;;;;;;;;5096677;28;20227;-61
2021/03/20 13:30:02;;;;;;;1.95;1.60;;;;;;;;;;5096958;28;20197;-61
2021/03/20 13:32:29;;;;;;;3.05;1.75;;;;;;;;;;5096501;28;20215;-61
2021/03/20 13:34:58;;;;;;;2.70;1.77;;;;;;;;;;5095943;28;20271;-61
2021/03/20 13:37:25;;;;;;;2.63;1.77;;;;;;;;;;5096642;28;20208;-60
2021/03/20 13:39:52;;;;;;;2.58;1.40;;;;;;;;;;5097287;28;20294;-61
2021/03/20 13:42:21;;;;;;;3.33;2.00;;;;;;;;;;5096680;28;20640;-61
2021/03/20 13:44:48;;;;;;;4.07;1.90;;;;;;;;;;5096224;28;20229;-61
2021/03/20 13:47:14;;;;;;;3.50;2.20;;;;;;;;;;5097976;28;20222;-61
2021/03/20 13:49:41;;;;;;;3.63;2.28;;;;;;;;;;5098759;28;20207;-61
2021/03/20 13:52:09;;;;;;;2.70;2.40;;;;;;;;;;5097284;28;20207;-61
2021/03/20 13:54:36;;;;;;;2.60;2.20;;;;;;;;;;5096908;28;20577;-60
2021/03/20 13:57:03;;;;;;;2.33;1.80;;;;;;;;;;5100796;28;20285;-60
2021/03/20 13:59:31;;;;;;;2.47;1.80;;;;;;;;;;5099378;28;20285;-61
2021/03/20 14:01:57;;;;;;;2.90;2.13;;;;;;;;;;5098414;28;20225;-61
2021/03/20 14:04:24;;;;;;;4.18;1.70;;;;;;;;;;5097918;28;20277;-60
2021/03/20 14:06:51;;;;;;;5.78;2.30;;;;;;;;;;5097727;28;20219;-61
2021/03/20 14:09:17;;;;;;;2.70;1.95;;;;;;;;;;5099182;28;20203;-59
2021/03/20 14:11:44;;;;;;;3.15;2.05;;;;;;;;;;5099703;28;20214;-60
2021/03/20 14:14:11;;;;;;;2.28;1.70;;;;;;;;;;5099179;28;20224;-61
2021/03/20 14:16:39;;;;;;;2.42;2.22;;;;;;;;;;5097925;28;20214;-62
2021/03/20 14:19:06;;;;;;;2.25;2.00;;;;;;;;;;5096582;28;20215;-60
2021/03/20 14:21:32;;;;;;;3.00;2.00;;;;;;;;;;5101246;28;20211;-60
2021/03/20 14:23:59;;;;;;;3.40;1.90;;;;;;;;;;5100164;28;20218;-61
2021/03/20 14:26:26;;;;;;;2.35;2.15;;;;;;;;;;5101563;28;20202;-60
2021/03/20 14:28:53;;;;;;;2.35;1.98;;;;;;;;;;5097399;28;20298;-62
2021/03/20 14:31:21;;;;;;;2.75;2.20;;;;;;;;;;5095311;28;20217;-61
2021/03/20 14:33:49;;;;;;;4.68;2.70;;;;;;;;;;5094986;28;20226;-61
2021/03/20 14:36:15;;;;;;;2.88;2.10;;;;;;;;;;5095675;28;20203;-61
2021/03/20 14:38:42;;;;;;;2.42;2.10;;;;;;;;;;5100905;28;20199;-60
2021/03/20 14:41:09;;;;;;;4.55;2.15;;;;;;;;;;5103895;28;20211;-62
2021/03/20 14:43:35;;;;;;;3.08;2.40;;;;;;;;;;5096187;28;20216;-61
2021/03/20 14:46:02;;;;;;;2.25;2.00;;;;;;;;;;5097567;28;20203;-61
2021/03/20 14:48:30;;;;;;;2.55;2.05;;;;;;;;;;5097262;28;20219;-61
2021/03/20 14:50:58;;;;;;;4.60;2.40;;;;;;;;;;5095359;28;20229;-61
2021/03/20 14:53:25;;;;;;;2.28;2.05;;;;;;;;;;5095207;28;20621;-60
2021/03/20 14:55:52;;;;;;;3.50;2.50;;;;;;;;;;5095212;28;20203;-62
2021/03/20 14:58:19;;;;;;;4.72;2.28;;;;;;;;;;5095369;28;20203;-61
2021/03/20 15:00:48;;;;;;;2.70;2.50;;;;;;;;;;5097667;28;20535;-61
2021/03/20 15:03:15;;;;;;;3.08;2.72;;;;;;;;;;5096821;28;20205;-60
2021/03/20 15:05:42;;;;;;;3.00;2.70;;;;;;;;;;5095404;28;20236;-60